Kelleys Island, Ohio
Current Conditions -  °F | °C
As of 7:53 AM on Monday 20 Oct 2014 (Local Time) from KPCW Reporting Station
Light Rain Light Rain  
Wind Chill:   Ceiling: 9000
Heat Index:   Visibility: 10mi
Dew Point:   Wind: 10mph
Humidity: 87%   Direction: 210°SSW
Pressure: 29.9"   Gusts: NA
Location:  41.6°N, 82.71°W
Report Text: KPCW 201153Z AUTO 21009KT 10SM -RA BKN090 09/07 A2990 RMK AO2 58013 60000
Loading
Personal Weather Stations






























Interactive Weather Map
Tropical Storm Tracking
New forecast layout! Learn more

10-Day Weather Forecast

Advertisements
Track Severe Weather on mobile